createdAt,value
2022-09-13T00:00:54.183Z,62.66
2022-09-13T00:03:23.277Z,62.30
2022-09-13T00:05:51.537Z,62.71
2022-09-13T00:08:20.323Z,62.74
2022-09-13T00:10:48.771Z,62.67
2022-09-13T00:13:18.198Z,62.81
2022-09-13T00:15:47.188Z,62.64
2022-09-13T00:18:16.975Z,62.82
2022-09-13T00:20:48.299Z,62.75
2022-09-13T00:23:16.305Z,62.86
2022-09-13T00:25:44.184Z,63.11
2022-09-13T00:28:12.439Z,63.09
2022-09-13T00:30:40.537Z,62.95
2022-09-13T00:33:08.500Z,63.18
2022-09-13T00:35:37.758Z,63.36
2022-09-13T00:38:06.076Z,63.50
2022-09-13T00:40:38.881Z,63.57
2022-09-13T00:43:13.387Z,63.51
2022-09-13T00:45:41.701Z,63.47
2022-09-13T00:48:17.581Z,63.48
2022-09-13T00:50:49.987Z,63.47
2022-09-13T00:53:23.355Z,63.97
2022-09-13T00:55:55.597Z,64.04
2022-09-13T00:58:29.793Z,63.93
2022-09-13T01:01:00.066Z,63.84
2022-09-13T01:03:32.031Z,64.04
2022-09-13T01:06:07.009Z,64.19
2022-09-13T01:08:38.729Z,64.32
2022-09-13T01:11:11.939Z,64.27
2022-09-13T01:13:41.203Z,64.40
2022-09-13T01:16:09.448Z,64.40
2022-09-13T01:18:37.406Z,64.05
2022-09-13T01:21:52.181Z,64.38
2022-09-13T01:24:56.430Z,64.21
2022-09-13T01:27:39.925Z,64.48
2022-09-13T01:30:16.567Z,64.57
2022-09-13T01:33:20.479Z,64.72
2022-09-13T01:36:04.491Z,64.45
2022-09-13T01:38:48.894Z,64.66
2022-09-13T01:41:37.343Z,64.82
2022-09-13T01:44:19.069Z,64.99
2022-09-13T01:46:54.476Z,64.65
2022-09-13T01:49:30.730Z,64.70
2022-09-13T01:52:03.491Z,64.69
2022-09-13T01:54:36.448Z,64.91
2022-09-13T01:57:14.325Z,64.89
2022-09-13T01:59:50.978Z,65.29
2022-09-13T02:02:25.329Z,64.96
2022-09-13T02:04:57.518Z,65.30
2022-09-13T02:07:30.479Z,65.36
2022-09-13T02:10:03.606Z,65.29
2022-09-13T02:12:37.514Z,65.26
2022-09-13T02:15:11.730Z,65.28
2022-09-13T02:17:45.301Z,65.51
2022-09-13T02:20:18.396Z,65.69
2022-09-13T02:22:53.503Z,65.56
2022-09-13T02:25:24.439Z,65.38
2022-09-13T02:27:59.203Z,65.57
2022-09-13T02:30:28.703Z,65.68
2022-09-13T02:33:02.791Z,65.51
2022-09-13T02:35:36.232Z,65.92
2022-09-13T02:38:07.044Z,65.59
2022-09-13T02:40:41.195Z,65.70
2022-09-13T02:43:13.926Z,66.09
2022-09-13T02:45:47.762Z,66.01
2022-09-13T02:48:26.057Z,66.09
2022-09-13T02:51:04.120Z,66.24
2022-09-13T02:53:41.701Z,66.25
2022-09-13T02:56:18.849Z,66.07
2022-09-13T02:58:52.470Z,65.96
2022-09-13T03:01:21.623Z,66.19
2022-09-13T03:03:53.696Z,66.41
2022-09-13T03:06:26.156Z,66.14
2022-09-13T03:08:54.906Z,66.33
2022-09-13T03:11:36.055Z,66.48
2022-09-13T03:14:21.127Z,66.21
2022-09-13T03:17:06.437Z,66.25
2022-09-13T03:19:49.302Z,66.35
2022-09-13T03:22:36.113Z,66.78
2022-09-13T03:25:10.351Z,66.61
2022-09-13T03:27:47.118Z,66.69
2022-09-13T03:30:17.107Z,66.52
2022-09-13T03:32:51.961Z,66.68
2022-09-13T03:35:29.541Z,66.82
2022-09-13T03:38:03.171Z,66.51
2022-09-13T03:40:39.517Z,66.62
2022-09-13T03:43:13.709Z,67.18
2022-09-13T03:45:45.766Z,66.87
2022-09-13T03:48:16.322Z,67.27
2022-09-13T03:50:47.929Z,66.91
2022-09-13T03:53:20.328Z,67.48
2022-09-13T03:55:48.332Z,67.25
2022-09-13T03:58:18.326Z,67.47
2022-09-13T04:00:46.737Z,67.41
2022-09-13T04:03:16.013Z,67.36
2022-09-13T04:05:46.776Z,67.38
2022-09-13T04:08:14.838Z,67.34
2022-09-13T04:10:42.708Z,67.70
2022-09-13T04:13:10.655Z,67.33
2022-09-13T04:15:38.726Z,67.51
2022-09-13T04:18:06.595Z,67.79
2022-09-13T04:20:35.887Z,67.72
2022-09-13T04:23:05.226Z,67.80
2022-09-13T04:25:33.278Z,67.89
2022-09-13T04:28:04.228Z,67.51
2022-09-13T04:30:32.302Z,67.63
2022-09-13T04:33:00.226Z,67.58
2022-09-13T04:35:28.968Z,68.08
2022-09-13T04:37:58.175Z,68.04
2022-09-13T04:40:27.499Z,67.68
2022-09-13T04:42:55.388Z,68.10
2022-09-13T04:45:23.810Z,68.36
2022-09-13T04:47:53.862Z,68.13
2022-09-13T04:50:21.881Z,68.19
2022-09-13T04:52:50.223Z,68.35
2022-09-13T04:55:18.142Z,68.21
2022-09-13T04:57:47.628Z,68.21
2022-09-13T05:00:16.140Z,68.52
2022-09-13T05:02:44.647Z,68.17
2022-09-13T05:05:12.630Z,68.57
2022-09-13T05:07:40.852Z,68.36
2022-09-13T05:10:09.716Z,68.66
2022-09-13T05:12:40.415Z,68.47
2022-09-13T05:15:12.121Z,68.73
2022-09-13T05:17:40.018Z,68.50
2022-09-13T05:20:09.739Z,68.81
2022-09-13T05:22:37.720Z,68.88
2022-09-13T05:25:06.376Z,68.76
2022-09-13T05:27:34.330Z,68.94
2022-09-13T05:30:02.157Z,68.86
2022-09-13T05:32:32.324Z,68.82
2022-09-13T05:35:00.227Z,69.02
2022-09-13T05:37:28.251Z,68.89
2022-09-13T05:40:12.681Z,68.91
2022-09-13T05:42:40.830Z,69.25
2022-09-13T05:45:10.657Z,69.03
2022-09-13T05:47:39.874Z,69.29
2022-09-13T05:50:11.040Z,69.38
2022-09-13T05:52:41.695Z,69.11
2022-09-13T05:55:10.700Z,69.34
2022-09-13T05:57:38.603Z,69.20
2022-09-13T06:00:07.622Z,69.48
2022-09-13T06:02:36.127Z,69.46
2022-09-13T06:05:06.663Z,69.13
2022-09-13T06:07:35.325Z,69.17
2022-09-13T06:10:04.883Z,69.34
2022-09-13T06:12:32.716Z,69.38
2022-09-13T06:15:00.836Z,69.40
2022-09-13T06:17:28.800Z,69.58
2022-09-13T06:19:57.182Z,69.46
2022-09-13T06:22:33.425Z,69.48
2022-09-13T06:25:01.634Z,69.50
2022-09-13T06:27:30.816Z,69.39
2022-09-13T06:29:58.801Z,69.77
2022-09-13T06:32:26.797Z,69.81
2022-09-13T06:34:54.574Z,69.95
2022-09-13T06:37:22.333Z,69.91
2022-09-13T06:39:51.997Z,69.94
2022-09-13T06:42:20.011Z,69.69
2022-09-13T06:44:48.594Z,69.97
2022-09-13T06:47:16.501Z,69.99
2022-09-13T06:49:44.378Z,70.08
2022-09-13T06:52:12.344Z,69.77
2022-09-13T06:54:40.145Z,70.13
2022-09-13T06:57:09.667Z,69.96
2022-09-13T06:59:37.614Z,70.04
2022-09-13T07:02:05.618Z,69.95
2022-09-13T07:04:33.620Z,70.38
2022-09-13T07:07:01.559Z,70.12
2022-09-13T07:09:29.294Z,70.03
2022-09-13T07:11:57.748Z,70.06
2022-09-13T07:14:31.742Z,70.18
2022-09-13T07:17:00.565Z,70.40
2022-09-13T07:19:29.643Z,70.16
2022-09-13T07:21:58.447Z,70.17
2022-09-13T07:24:27.485Z,70.16
2022-09-13T07:26:55.493Z,70.36
2022-09-13T07:29:24.706Z,70.12
2022-09-13T07:31:58.724Z,70.28
2022-09-13T07:34:27.648Z,70.30
2022-09-13T07:36:55.816Z,70.47
2022-09-13T07:39:24.642Z,70.25
2022-09-13T07:41:53.821Z,70.42
2022-09-13T07:44:23.047Z,70.23
2022-09-13T07:46:51.047Z,70.58
2022-09-13T07:49:20.579Z,70.32
2022-09-13T07:51:53.005Z,70.60
2022-09-13T07:54:21.519Z,70.54
2022-09-13T07:56:51.747Z,70.23
2022-09-13T07:59:20.057Z,70.22
2022-09-13T08:01:49.814Z,70.73
2022-09-13T08:04:21.449Z,70.50
2022-09-13T08:06:50.022Z,70.48
2022-09-13T08:09:18.705Z,70.46
2022-09-13T08:11:48.694Z,70.38
2022-09-13T08:14:19.162Z,70.57
2022-09-13T08:16:47.532Z,70.93
2022-09-13T08:19:17.533Z,70.73
2022-09-13T08:21:50.069Z,71.05
2022-09-13T08:24:21.401Z,70.79
2022-09-13T08:26:50.079Z,70.98
2022-09-13T08:29:19.059Z,70.93
2022-09-13T08:31:47.263Z,70.70
2022-09-13T08:34:16.813Z,71.08
2022-09-13T08:36:46.135Z,70.93
2022-09-13T08:39:18.077Z,70.83
2022-09-13T08:42:04.748Z,71.03
2022-09-13T08:44:36.159Z,70.86
2022-09-13T08:47:21.705Z,71.21
2022-09-13T08:49:53.527Z,71.21
2022-09-13T08:52:30.631Z,71.00
2022-09-13T08:55:01.790Z,71.57
2022-09-13T08:57:37.788Z,71.18
2022-09-13T09:00:20.090Z,71.60
2022-09-13T09:02:59.732Z,71.40
2022-09-13T09:05:30.778Z,71.72
2022-09-13T09:08:03.291Z,71.55
2022-09-13T09:10:39.696Z,71.60
2022-09-13T09:13:13.803Z,71.73
2022-09-13T09:15:47.779Z,71.58
2022-09-13T09:18:21.945Z,71.58
2022-09-13T09:20:51.726Z,71.75
2022-09-13T09:23:24.917Z,71.72
2022-09-13T09:26:14.014Z,71.84
2022-09-13T09:28:43.339Z,71.85
2022-09-13T09:31:18.391Z,71.94
2022-09-13T09:34:08.499Z,72.13
2022-09-13T09:36:43.379Z,72.19
2022-09-13T09:39:14.361Z,72.28
2022-09-13T09:41:42.248Z,72.43
2022-09-13T09:44:22.567Z,72.58
2022-09-13T09:46:56.181Z,72.37
2022-09-13T09:49:50.162Z,72.30
2022-09-13T09:52:22.957Z,72.80
2022-09-13T09:54:52.181Z,72.64
2022-09-13T09:57:20.839Z,72.60
2022-09-13T09:59:50.123Z,73.03
2022-09-13T10:02:21.595Z,72.51
2022-09-13T10:04:58.174Z,72.66
2022-09-13T10:07:31.240Z,73.09
2022-09-13T10:10:03.352Z,73.18
2022-09-13T10:12:35.158Z,72.82
2022-09-13T10:15:17.831Z,73.16
2022-09-13T10:18:03.072Z,72.92
2022-09-13T10:20:31.655Z,73.13
2022-09-13T10:23:18.669Z,73.01
2022-09-13T10:25:59.918Z,73.08
2022-09-13T10:28:28.898Z,73.44
2022-09-13T10:31:01.233Z,73.64
2022-09-13T10:33:33.269Z,73.40
2022-09-13T10:36:04.701Z,73.41
2022-09-13T10:38:44.140Z,73.38
2022-09-13T10:41:24.521Z,73.24
2022-09-13T10:43:58.644Z,73.58
2022-09-13T10:46:31.723Z,73.56
2022-09-13T10:49:00.115Z,73.79
2022-09-13T10:51:37.099Z,73.80
2022-09-13T10:54:16.634Z,73.58
2022-09-13T10:56:45.543Z,74.01
2022-09-13T10:59:25.529Z,73.76
2022-09-13T11:02:30.306Z,74.26
2022-09-13T11:05:10.579Z,74.17
2022-09-13T11:08:31.543Z,73.89
2022-09-13T11:11:11.700Z,74.66
2022-09-13T11:13:54.805Z,74.28
2022-09-13T11:16:35.782Z,74.26
2022-09-13T11:19:19.142Z,74.14
2022-09-13T11:22:03.131Z,74.33
2022-09-13T11:24:51.071Z,74.35
2022-09-13T11:27:31.145Z,74.25
2022-09-13T11:30:09.775Z,74.21
2022-09-13T11:32:53.766Z,74.21
2022-09-13T11:35:37.356Z,74.35
2022-09-13T11:38:17.111Z,74.53
2022-09-13T11:40:57.388Z,74.48
2022-09-13T11:43:42.692Z,74.61
2022-09-13T11:46:20.402Z,74.60
2022-09-13T11:49:08.523Z,74.69
2022-09-13T11:51:54.182Z,74.42
2022-09-13T11:54:48.196Z,74.60
2022-09-13T11:57:22.795Z,74.63
2022-09-13T11:59:55.182Z,74.86
2022-09-13T12:02:28.998Z,74.84
2022-09-13T12:05:21.534Z,74.91
2022-09-13T12:07:56.655Z,74.98
2022-09-13T12:10:31.356Z,74.84
2022-09-13T12:13:16.236Z,74.99
2022-09-13T12:15:49.924Z,74.85
2022-09-13T12:18:23.695Z,75.13
2022-09-13T12:20:56.304Z,74.98
2022-09-13T12:23:40.370Z,74.97
2022-09-13T12:26:16.734Z,75.24
2022-09-13T12:28:52.977Z,75.34
2022-09-13T12:31:36.195Z,75.29
2022-09-13T12:37:50.252Z,75.33
2022-09-13T12:40:40.674Z,75.11
2022-09-13T12:43:37.682Z,75.19
2022-09-13T12:46:31.422Z,75.12
2022-09-13T12:49:33.473Z,75.61
2022-09-13T12:52:18.410Z,75.46
2022-09-13T12:55:46.172Z,75.29
2022-09-13T12:58:40.847Z,75.26
2022-09-13T13:01:26.379Z,75.34
2022-09-13T13:04:15.860Z,75.49
2022-09-13T13:06:56.443Z,75.51
2022-09-13T13:09:34.806Z,75.56
2022-09-13T13:12:03.625Z,75.62
2022-09-13T13:14:53.811Z,75.60
2022-09-13T13:18:07.516Z,75.69
2022-09-13T13:21:33.520Z,75.60
2022-09-13T13:24:39.501Z,75.60
2022-09-13T13:27:48.462Z,75.74
2022-09-13T13:31:44.298Z,76.06
2022-09-13T13:34:08.734Z,75.64
2022-09-13T13:37:52.291Z,76.18
2022-09-13T13:40:30.622Z,75.76
2022-09-13T13:43:37.734Z,76.11
2022-09-13T13:46:29.353Z,76.05
2022-09-13T13:49:33.037Z,75.99
2022-09-13T13:52:46.258Z,75.96
2022-09-13T13:55:41.209Z,76.39
2022-09-13T13:58:25.925Z,76.26
2022-09-13T14:00:56.150Z,76.32
2022-09-13T14:03:36.408Z,76.46
2022-09-13T14:06:14.939Z,76.58
2022-09-13T14:08:58.397Z,76.03
2022-09-13T14:11:41.914Z,76.19
2022-09-13T14:14:27.924Z,76.58
2022-09-13T14:17:16.489Z,76.22
2022-09-13T14:19:49.469Z,76.40
2022-09-13T14:22:20.150Z,76.51
2022-09-13T14:24:49.854Z,76.52
2022-09-13T14:27:21.347Z,76.52
2022-09-13T14:29:52.181Z,76.55
2022-09-13T14:32:23.134Z,76.88
2022-09-13T14:34:59.427Z,76.99
2022-09-13T14:37:31.449Z,76.78
2022-09-13T14:40:02.292Z,77.09
2022-09-13T14:42:40.704Z,77.04
2022-09-13T14:45:15.015Z,77.24
2022-09-13T14:47:51.824Z,77.22
2022-09-13T14:50:26.303Z,77.23
2022-09-13T14:52:58.180Z,77.18
2022-09-13T14:55:31.493Z,77.28
2022-09-13T14:58:04.423Z,77.21
2022-09-13T15:00:35.938Z,77.05
2022-09-13T15:03:13.044Z,77.41
2022-09-13T15:05:42.425Z,77.46
2022-09-13T15:08:47.781Z,77.50
2022-09-13T15:11:27.571Z,77.53
2022-09-13T15:14:03.519Z,77.46
2022-09-13T15:16:33.216Z,77.23
2022-09-13T15:19:18.120Z,77.45
2022-09-13T15:21:47.560Z,77.51
2022-09-13T15:24:22.802Z,77.46
2022-09-13T15:27:01.962Z,77.12
2022-09-13T15:29:34.661Z,77.45
2022-09-13T15:32:03.748Z,77.44
2022-09-13T15:34:31.640Z,77.47
2022-09-13T15:37:14.867Z,77.36
2022-09-13T15:39:48.476Z,77.11
2022-09-13T15:42:17.946Z,77.40
2022-09-13T15:44:45.952Z,77.47
2022-09-13T15:47:25.449Z,77.38
2022-09-13T15:49:56.327Z,77.46
2022-09-13T15:52:25.641Z,77.49
2022-09-13T15:54:53.506Z,77.43
2022-09-13T15:57:24.490Z,77.56
2022-09-13T15:59:54.350Z,77.49
2022-09-13T16:02:25.643Z,77.28
2022-09-13T16:04:56.428Z,77.41
2022-09-13T16:07:47.718Z,77.34
2022-09-13T16:10:20.437Z,77.18
2022-09-13T16:12:51.784Z,77.41
2022-09-13T16:15:20.032Z,77.64
2022-09-13T16:17:47.935Z,77.44
2022-09-13T16:20:17.431Z,77.45
2022-09-13T16:22:46.748Z,77.32
2022-09-13T16:25:15.916Z,77.22
2022-09-13T16:27:45.026Z,77.50
2022-09-13T16:30:14.933Z,77.47
2022-09-13T16:32:42.912Z,77.38
2022-09-13T16:35:12.390Z,77.40
2022-09-13T16:37:41.163Z,77.33
2022-09-13T16:40:12.465Z,77.41
2022-09-13T16:43:00.789Z,77.08
2022-09-13T16:45:28.789Z,77.58
2022-09-13T16:47:56.818Z,77.19
2022-09-13T16:50:25.230Z,77.30
2022-09-13T16:52:53.041Z,77.58
2022-09-13T16:55:22.373Z,77.28
2022-09-13T16:57:52.522Z,77.47
2022-09-13T17:00:21.118Z,77.49
2022-09-13T17:02:49.259Z,77.41
2022-09-13T17:05:17.367Z,77.44
2022-09-13T17:07:45.508Z,77.21
2022-09-13T17:10:13.736Z,77.73
2022-09-13T17:12:43.416Z,77.33
2022-09-13T17:15:11.978Z,77.27
2022-09-13T17:17:40.289Z,77.44
2022-09-13T17:20:12.009Z,77.52
2022-09-13T17:22:40.036Z,77.44
2022-09-13T17:25:09.132Z,77.58
2022-09-13T17:27:37.401Z,77.62
2022-09-13T17:30:11.420Z,77.47
2022-09-13T17:32:39.362Z,77.59
2022-09-13T17:35:08.730Z,77.49
2022-09-13T17:37:37.111Z,77.57
2022-09-13T17:40:06.034Z,77.66
2022-09-13T17:42:33.961Z,77.72
2022-09-13T17:45:01.950Z,77.64
2022-09-13T17:47:31.150Z,77.96
2022-09-13T17:49:59.145Z,78.08
2022-09-13T17:52:27.722Z,77.76
2022-09-13T17:54:57.609Z,77.83
2022-09-13T17:57:25.619Z,77.93
2022-09-13T17:59:54.877Z,77.91
2022-09-13T18:02:23.322Z,77.87
2022-09-13T18:04:53.193Z,77.83
2022-09-13T18:07:21.198Z,77.90
2022-09-13T18:09:49.134Z,77.94
2022-09-13T18:12:17.219Z,77.90
2022-09-13T18:14:45.144Z,77.96
2022-09-13T18:17:13.921Z,78.17
2022-09-13T18:19:46.634Z,78.14
2022-09-13T18:22:16.729Z,78.28
2022-09-13T18:24:44.952Z,78.13
2022-09-13T18:27:13.377Z,78.25
2022-09-13T18:29:41.262Z,78.33
2022-09-13T18:32:09.418Z,78.29
2022-09-13T18:34:37.309Z,78.30
2022-09-13T18:37:05.705Z,78.37
2022-09-13T18:39:39.233Z,78.41
2022-09-13T18:42:12.531Z,78.51
2022-09-13T18:44:40.781Z,78.37
2022-09-13T18:47:13.002Z,78.32
2022-09-13T18:49:43.961Z,78.35
2022-09-13T18:52:17.262Z,78.49
2022-09-13T18:54:53.510Z,78.57
2022-09-13T18:57:24.088Z,78.52
2022-09-13T18:59:52.667Z,78.59
2022-09-13T19:02:23.798Z,78.60
2022-09-13T19:04:56.613Z,78.70
2022-09-13T19:07:24.654Z,78.68
2022-09-13T19:10:00.297Z,78.83
2022-09-13T19:12:28.553Z,78.79
2022-09-13T19:14:56.391Z,78.90
2022-09-13T19:17:25.100Z,78.97
2022-09-13T19:19:53.142Z,78.86
2022-09-13T19:22:21.005Z,79.05
2022-09-13T19:24:51.762Z,78.82
2022-09-13T19:27:24.510Z,79.18
2022-09-13T19:29:53.917Z,79.17
2022-09-13T19:32:26.466Z,79.03
2022-09-13T19:34:54.726Z,79.01
2022-09-13T19:37:22.676Z,79.25
2022-09-13T19:39:51.938Z,79.30
2022-09-13T19:42:23.862Z,79.18
2022-09-13T19:44:53.869Z,79.33
2022-09-13T19:50:12.999Z,79.18
2022-09-13T19:52:46.368Z,79.42
2022-09-13T19:55:14.601Z,79.50
2022-09-13T19:57:46.458Z,79.32
2022-09-13T20:00:15.520Z,79.52
2022-09-13T20:02:43.691Z,79.72
2022-09-13T20:05:11.559Z,79.73
2022-09-13T20:07:39.574Z,79.88
2022-09-13T20:10:07.785Z,79.82
2022-09-13T20:12:37.749Z,79.59
2022-09-13T20:15:08.671Z,79.88
2022-09-13T20:17:38.010Z,80.19
2022-09-13T20:20:06.398Z,80.05
2022-09-13T20:22:34.322Z,79.86
2022-09-13T20:25:03.180Z,80.06
2022-09-13T20:27:32.669Z,80.05
2022-09-13T20:30:01.774Z,80.12
2022-09-13T20:32:31.227Z,80.01
2022-09-13T20:34:59.140Z,79.99
2022-09-13T20:37:27.657Z,80.12
2022-09-13T20:39:55.659Z,80.07
2022-09-13T20:42:24.515Z,80.41
2022-09-13T20:44:52.612Z,80.17
2022-09-13T20:47:20.558Z,80.32
2022-09-13T20:49:49.864Z,80.30
2022-09-13T20:52:17.903Z,80.31
2022-09-13T20:54:48.507Z,80.33
2022-09-13T20:57:16.427Z,80.45
2022-09-13T20:59:44.788Z,80.39
2022-09-13T21:02:12.756Z,80.26
2022-09-13T21:04:40.683Z,80.68
2022-09-13T21:07:30.435Z,80.54
2022-09-13T21:10:01.034Z,80.33
2022-09-13T21:12:29.574Z,80.54
2022-09-13T21:14:57.508Z,80.67
2022-09-13T21:17:25.820Z,80.56
2022-09-13T21:19:53.802Z,80.68
2022-09-13T21:22:25.046Z,80.57
2022-09-13T21:24:53.190Z,80.88
2022-09-13T21:27:21.289Z,80.68
2022-09-13T21:29:49.291Z,80.32
2022-09-13T21:32:17.170Z,80.67
2022-09-13T21:34:46.469Z,80.62
2022-09-13T21:37:14.360Z,80.38
2022-09-13T21:39:43.648Z,81.00
2022-09-13T21:42:11.812Z,80.95
2022-09-13T21:44:39.780Z,81.15
2022-09-13T21:47:07.772Z,80.76
2022-09-13T21:49:35.632Z,80.85
2022-09-13T21:52:04.073Z,81.01
2022-09-13T21:54:31.891Z,80.70
2022-09-13T21:57:01.375Z,80.79
2022-09-13T21:59:29.229Z,80.99
2022-09-13T22:01:58.208Z,80.77
2022-09-13T22:04:27.675Z,81.19
2022-09-13T22:06:56.228Z,81.03
2022-09-13T22:09:27.056Z,80.82
2022-09-13T22:11:55.936Z,81.29
2022-09-13T22:14:25.288Z,81.16
2022-09-13T22:16:53.624Z,81.31
2022-09-13T22:19:23.767Z,81.18
2022-09-13T22:21:55.794Z,81.03
2022-09-13T22:24:25.594Z,80.90
2022-09-13T22:26:56.650Z,81.40
2022-09-13T22:29:26.421Z,81.50
2022-09-13T22:31:54.802Z,81.31
2022-09-13T22:34:25.435Z,81.20
2022-09-13T22:36:55.506Z,81.19
2022-09-13T22:39:23.662Z,81.24
2022-09-13T22:41:51.856Z,81.55
2022-09-13T22:44:19.764Z,81.80
2022-09-13T22:46:49.102Z,81.91
2022-09-13T22:49:18.832Z,81.64
2022-09-13T22:51:47.862Z,81.47
2022-09-13T22:54:17.572Z,81.78
2022-09-13T22:56:45.762Z,81.98
2022-09-13T22:59:15.700Z,81.68
2022-09-13T23:01:43.898Z,81.74
2022-09-13T23:04:13.944Z,82.03
2022-09-13T23:06:43.960Z,81.89
2022-09-13T23:09:15.699Z,81.86
2022-09-13T23:11:43.833Z,81.74
2022-09-13T23:14:13.473Z,81.74
2022-09-13T23:16:43.536Z,81.98
2022-09-13T23:19:14.293Z,81.82
2022-09-13T23:21:42.629Z,82.30
2022-09-13T23:24:14.111Z,82.12
2022-09-13T23:26:42.467Z,82.04
2022-09-13T23:29:13.758Z,81.98
2022-09-13T23:31:42.626Z,82.32
2022-09-13T23:34:12.362Z,82.14
2022-09-13T23:36:44.252Z,82.18
2022-09-13T23:39:17.672Z,82.16
2022-09-13T23:41:47.214Z,82.25
2022-09-13T23:44:15.278Z,82.36
2022-09-13T23:46:43.586Z,82.44
2022-09-13T23:49:12.874Z,82.37
2022-09-13T23:51:42.418Z,82.46
2022-09-13T23:54:13.938Z,82.34
2022-09-13T23:56:42.491Z,82.71
2022-09-13T23:59:12.664Z,82.50
